Nearby METAR Reports

 

KLXT - Lees Summit Muni, Missouri, USA
Distance from station: E 5mi, 9km
Updated: Thu, 02-Oct-2014 9:02am CDT
Nearby thunderstorm, Light rain, Mist, Mostly cloudy
Nearby thunderstorm, Light rain, Mist, Mostly cloudy
 Wind from S
Wind: S 16 mph , 26 km/h, Gust: 24 mph , 39 km/h
Temperature: 66°F , 19°C
Dew Point: 64°F , 18°C
Humidity: 94%
Barometer: 29.75 inHg , 1007.5 hPa
Summary: Nearby thunderstorm, Light rain, Mist
Clouds: Mostly cloudy
Visibility: 4 miles , 6 km
Cloud details: Few Clouds 6000 ft
Partly cloudy 9500 ft
Mostly cloudy 12000 ft
2014/10/02 14:02 KLXT 021402Z AUTO 17014G21KT 4SM VCTS -RA BR FEW060 SCT095 BKN120 19/18 A2975 RMK AO2 LTG DSNT ALQDS TSE1356 P0002 T01940183
KMKC - Kansas City/Dntn, Missouri, USA
Distance from station: NW 12mi, 19km
Updated: Thu, 02-Oct-2014 9:19am CDT
Heavy thunderstorm, Rain, Fog, Overcast
Heavy thunderstorm, Rain, Fog, Overcast
 Wind from WSW
Wind: WSW 12 mph , 19 km/h, Gust: 22 mph , 35 km/h
Temperature: 70°F , 21°C
Dew Point: 64°F , 18°C
Humidity: 83%
Barometer: 29.76 inHg , 1007.8 hPa
Summary: Heavy thunderstorm, Rain, Fog
Clouds: Overcast
Visibility: 1/2 mile , 2 km
Cloud details: Few Clouds 1200 ft
Mostly cloudy 2500 ft
Overcast 11000 ft
2014/10/02 14:19 KMKC 021419Z 24010G19KT 1/2SM +TSRA FG FEW012 BKN025 OVC110 21/18 A2976 RMK AO2 LTG DSNT ALQDS TSE06B08 P0021 T02060183 $
 
KIXD - Olathe/Industria, Kansas, USA
Distance from station: WSW 25mi, 41km
Updated: Thu, 02-Oct-2014 9:18am CDT
Light rain, Overcast
Light rain, Overcast
 Wind from S
Wind: S 9 mph , 15 km/h
Temperature: 66°F , 19°C
Dew Point: 64°F , 18°C
Humidity: 94%
Barometer: 29.74 inHg , 1007.1 hPa
Summary: Light rain
Clouds: Overcast
Visibility: 10 miles , 16 km
Cloud details: Few Clouds 700 ft
Mostly cloudy 2400 ft
Overcast 3100 ft
2014/10/02 14:18 KIXD 021418Z 17008KT 10SM -RA FEW007 BKN024 OVC031 19/18 A2974 RMK AO2 LTG DSNT ALQDS RAB09 TSB1356E14 P0000 T01940183
KMCI - Kansas City/Intl, Missouri, USA
Distance from station: NW 26mi, 42km
Updated: Thu, 02-Oct-2014 8:53am CDT
Thunderstorm, Overcast
Thunderstorm, Overcast
 Wind from S
Wind: S 14 mph , 22 km/h
Temperature: 66°F , 19°C
Dew Point: 66°F , 19°C
Humidity: 100%
Barometer: 29.77 inHg , 1008.1 hPa
Summary: Thunderstorm
Clouds: Overcast
Visibility: 10 miles , 16 km
Cloud details: Partly cloudy 2200 ft
Overcast 3500 ft
2014/10/02 13:53 KMCI 021353Z 18012KT 10SM TS SCT022 OVC035CB 19/19 A2977 RMK AO2 LTG DSNT SE-SW RAB09E44 TSB52 SLP071 OCNL LTGICCCCG S TS S MOV NE P0000 T01940194
 
KRCM - Warrensburg Skyh, Missouri, USA
Distance from station: ESE 38mi, 62km
Updated: Thu, 02-Oct-2014 8:55am CDT
Light drizzle, Mostly cloudy
Light drizzle, Mostly cloudy
 Wind from ESE
Wind: ESE 7 mph , 11 km/h
Temperature: 64°F , 18°C
Dew Point: 63°F , 17°C
Humidity: 94%
Barometer: 29.78 inHg , 1008.5 hPa
Summary: Light Drizzle
Clouds: Mostly cloudy
Visibility: 10 miles , 16 km
Cloud details: Mostly cloudy 1500 ft
Mostly cloudy 7000 ft
Mostly cloudy 10000 ft
2014/10/02 13:55 KRCM 021355Z AUTO 12006KT 10SM -DZ BKN015 BKN070 BKN100 18/17 A2978 RMK AO2 P0001 LTG DSNT ALQS
KLWC - Lawrence, Kansas, USA
Distance from station: W 40mi, 65km
Updated: Thu, 02-Oct-2014 9:22am CDT
Nearby thunderstorm, Light rain, Mist, Overcast
Nearby thunderstorm, Light rain, Mist, Overcast
 Wind from SSE
Wind: SSE 12 mph , 19 km/h
Temperature: 66°F , 19°C
Dew Point: 64°F , 18°C
Humidity: 94%
Barometer: 29.73 inHg , 1006.8 hPa
Summary: Nearby thunderstorm, Light rain, Mist
Clouds: Overcast
Visibility: 3 miles , 5 km
Cloud details: Few Clouds 700 ft
Mostly cloudy 2200 ft
Overcast 3200 ft
2014/10/02 14:22 KLWC 021422Z AUTO 16010KT 3SM VCTS -RA BR FEW007 BKN022 OVC032 19/18 A2973 RMK AO2 LTG DSNT NE AND E AND SW TSE19 P0020 T01940183
 
KSZL - Whiteman Afb, Missouri, USA
Distance from station: ESE 53mi, 86km
Updated: Thu, 02-Oct-2014 8:58am CDT
Light rain, Nearby thunderstorm, Overcast
Light rain, Nearby thunderstorm, Overcast
 Wind from N
Wind: N 8 mph , 13 km/h
Temperature: 64°F , 18°C
Dew Point: 63°F , 17°C
Humidity: 94%
Barometer: 29.79 inHg , 1008.8 hPa
Summary: Light rain, Nearby thunderstorm
Clouds: Overcast
Visibility: 7 miles , 11 km
Cloud details: Few Clouds 1100 ft
Overcast 7000 ft
2014/10/02 13:58 KSZL 021358Z 36007KT 7SM -RA VCTS FEW011 OVC070 18/17 A2979 RMK AO2A SLP086 P0014 T01800172 $
KSTJ - St. Joseph, Missouri, USA
Distance from station: NNW 59mi, 95km
Updated: Thu, 02-Oct-2014 9:22am CDT
Light thunderstorm, Rain, Mist, Overcast
Light thunderstorm, Rain, Mist, Overcast
 Wind from ESE
Wind: ESE 7 mph , 11 km/h
Temperature: 66°F , 19°C
Dew Point: 64°F , 18°C
Humidity: 94%
Barometer: 29.73 inHg , 1006.8 hPa
Summary: Light thunderstorm, Rain, Mist
Clouds: Overcast
Visibility: 3 miles , 5 km
Cloud details: Partly cloudy 800 ft
Mostly cloudy 1200 ft
Overcast 1700 ft
2014/10/02 14:22 KSTJ 021422Z 11006KT 3SM -TSRA BR SCT008 BKN012 OVC017 19/18 A2973 RMK AO2 LTG DSNT E AND S RAB08 TSB12 P0018 T01890178
 
KGLY - Clinton, Missouri, USA
Distance from station: SE 61mi, 98km
Updated: Thu, 02-Oct-2014 9:15am CDT
Mostly cloudy
Mostly cloudy
 Wind from ENE
Wind: ENE 3 mph , 6 km/h
Temperature: 64°F , 18°C
Dew Point: 64°F , 18°C
Humidity: 100%
Barometer: 29.79 inHg , 1008.8 hPa
Clouds: Mostly cloudy
Visibility: 10 miles , 16 km
Cloud details: Mostly cloudy 1500 ft
Mostly cloudy 7500 ft
2014/10/02 14:15 KGLY 021415Z AUTO 07003KT 10SM BKN015 BKN075 18/18 A2979 RMK AO2 LTG DSNT NE AND S AND NW
KFOE - Topeka/Forbes, Kansas, USA
Distance from station: W 64mi, 103km
Updated: Thu, 02-Oct-2014 8:53am CDT
Mist, Overcast
Mist, Overcast
 Wind from varies
Wind: varies 3 mph , 6 km/h
Temperature: 68°F , 20°C
Dew Point: 66°F , 19°C
Humidity: 94%
Barometer: 29.73 inHg , 1006.8 hPa
Summary: Mist
Clouds: Overcast
Visibility: 4 miles , 6 km
Cloud details: Few Clouds 600 ft
Overcast 1000 ft
2014/10/02 13:53 KFOE 021353Z VRB03KT 4SM BR FEW006 OVC010 20/19 A2973 RMK AO2 LTG DSNT E-S SLP058 T02000189
 
KDMO - Sedalia, Missouri, USA
Distance from station: ESE 72mi, 116km
Updated: Thu, 02-Oct-2014 9:17am CDT
Light rain, Mist, Overcast
Light rain, Mist, Overcast
 Wind from ESE
Wind: ESE 12 mph , 19 km/h
Temperature: 66°F , 19°C
Dew Point: 64°F , 18°C
Humidity: 94%
Barometer: 29.78 inHg , 1008.5 hPa
Summary: Light rain, Mist
Clouds: Overcast
Visibility: 3 miles , 5 km
Cloud details: Few Clouds 300 ft
Overcast 11000 ft
2014/10/02 14:17 KDMO 021417Z AUTO 11010KT 3SM -RA BR FEW003 OVC110 19/18 A2978 RMK AO2 LTG DSNT NE P0005 T01940183
KCDJ - Chillicothe, Missouri, USA
Distance from station: NE 74mi, 120km
Updated: Thu, 02-Oct-2014 8:52am CDT

 Wind from ESE
Wind: ESE 3 mph , 6 km/h
Temperature: 66°F , 19°C
Dew Point: 64°F , 18°C
Humidity: 94%
Barometer: 29.78 inHg , 1008.5 hPa
2014/10/02 13:52 KCDJ 021352Z AUTO 11003KT 19/18 A2978 RMK AO1 SLP076 P0017 T01890178
 
KFNB - Falls City/Brenn, Nebraska, USA
Distance from station: NW 96mi, 154km
Updated: Thu, 02-Oct-2014 9:16am CDT
Heavy thunderstorm, Rain, Mist, Overcast
Heavy thunderstorm, Rain, Mist, Overcast
 Wind from NNE
Wind: NNE 9 mph , 15 km/h
Temperature: 64°F , 18°C
Dew Point: 63°F , 17°C
Humidity: 94%
Barometer: 29.74 inHg , 1007.1 hPa
Summary: Heavy thunderstorm, Rain, Mist
Clouds: Overcast
Visibility: 2 1/2 miles , 2 km
Cloud details: Mostly cloudy 500 ft
Mostly cloudy 4300 ft
Overcast 7500 ft
2014/10/02 14:16 KFNB 021416Z AUTO 02008KT 2 1/2SM +TSRA BR BKN005 BKN043 OVC075 18/17 A2974 RMK AO2 LTG DSNT SW AND W RAB04 TSB10 P0006 T01830172
KVER - Boonville, Missouri, USA
Distance from station: E 96mi, 154km
Updated: Thu, 02-Oct-2014 9:15am CDT
Rain, Overcast
Rain, Overcast
 Wind from ESE
Wind: ESE 9 mph , 15 km/h
Temperature: 66°F , 19°C
Dew Point: 66°F , 19°C
Humidity: 100%
Barometer: 29.84 inHg , 1010.5 hPa
Summary: Rain
Clouds: Overcast
Visibility: 7 miles , 11 km
Cloud details: Partly cloudy 1500 ft
Partly cloudy 3100 ft
Overcast 9500 ft
2014/10/02 14:15 KVER 021415Z AUTO 11008KT 7SM RA SCT015 SCT031 OVC095 19/19 A2984 RMK AO2 LTG DSNT ALQS P0004 T01870188